sensor_id;sensor_type;location;lat;lon;timestamp;pressure;altitude;pressure_sealevel;temperature;humidity
3464;BME280;3551;41.578;24.706;2024-02-23T00:00:20;91163.34;;;5.96;100.00
3464;BME280;3551;41.578;24.706;2024-02-23T00:02:48;91160.50;;;5.82;100.00
3464;BME280;3551;41.578;24.706;2024-02-23T00:05:16;91141.16;;;5.81;100.00
3464;BME280;3551;41.578;24.706;2024-02-23T00:07:45;91140.75;;;5.79;100.00
3464;BME280;3551;41.578;24.706;2024-02-23T00:10:15;91182.06;;;5.77;100.00
3464;BME280;3551;41.578;24.706;2024-02-23T00:12:51;91156.34;;;5.84;100.00
3464;BME280;3551;41.578;24.706;2024-02-23T00:15:18;91149.78;;;5.71;100.00
3464;BME280;3551;41.578;24.706;2024-02-23T00:17:45;91175.25;;;5.79;100.00
3464;BME280;3551;41.578;24.706;2024-02-23T00:20:13;91138.97;;;5.87;100.00
3464;BME280;3551;41.578;24.706;2024-02-23T00:22:41;91120.25;;;5.76;100.00
3464;BME280;3551;41.578;24.706;2024-02-23T00:25:08;91124.44;;;5.77;100.00
3464;BME280;3551;41.578;24.706;2024-02-23T00:27:35;91130.25;;;5.86;100.00
3464;BME280;3551;41.578;24.706;2024-02-23T00:30:03;91152.09;;;5.76;100.00
3464;BME280;3551;41.578;24.706;2024-02-23T00:32:31;91165.47;;;5.83;100.00
3464;BME280;3551;41.578;24.706;2024-02-23T00:34:58;91107.13;;;5.87;100.00
3464;BME280;3551;41.578;24.706;2024-02-23T00:37:27;91117.56;;;5.73;100.00
3464;BME280;3551;41.578;24.706;2024-02-23T00:40:00;91113.84;;;5.77;100.00
3464;BME280;3551;41.578;24.706;2024-02-23T00:42:29;91117.25;;;5.78;100.00
3464;BME280;3551;41.578;24.706;2024-02-23T00:44:56;91150.31;;;5.84;100.00
3464;BME280;3551;41.578;24.706;2024-02-23T00:47:23;91116.72;;;5.98;100.00
3464;BME280;3551;41.578;24.706;2024-02-23T00:49:50;91116.31;;;5.96;100.00
3464;BME280;3551;41.578;24.706;2024-02-23T00:52:18;91126.59;;;6.01;100.00
3464;BME280;3551;41.578;24.706;2024-02-23T00:54:47;91130.31;;;5.93;100.00
3464;BME280;3551;41.578;24.706;2024-02-23T00:57:16;91120.63;;;6.08;100.00
3464;BME280;3551;41.578;24.706;2024-02-23T00:59:47;91120.16;;;5.99;100.00
3464;BME280;3551;41.578;24.706;2024-02-23T01:02:14;91150.41;;;5.91;100.00
3464;BME280;3551;41.578;24.706;2024-02-23T01:04:42;91121.78;;;6.10;100.00
3464;BME280;3551;41.578;24.706;2024-02-23T01:07:09;91157.78;;;6.08;100.00
3464;BME280;3551;41.578;24.706;2024-02-23T01:09:37;91129.72;;;6.10;100.00
3464;BME280;3551;41.578;24.706;2024-02-23T01:12:08;91126.69;;;6.08;100.00
3464;BME280;3551;41.578;24.706;2024-02-23T01:14:35;91126.25;;;6.03;100.00
3464;BME280;3551;41.578;24.706;2024-02-23T01:17:04;91124.06;;;6.12;100.00
3464;BME280;3551;41.578;24.706;2024-02-23T01:19:31;91109.19;;;6.00;100.00
3464;BME280;3551;41.578;24.706;2024-02-23T01:22:03;91147.53;;;6.06;100.00
3464;BME280;3551;41.578;24.706;2024-02-23T01:24:30;91109.34;;;6.18;100.00
3464;BME280;3551;41.578;24.706;2024-02-23T01:26:58;91106.81;;;6.32;100.00
3464;BME280;3551;41.578;24.706;2024-02-23T01:29:29;91087.59;;;6.05;100.00
3464;BME280;3551;41.578;24.706;2024-02-23T01:31:59;91100.50;;;6.03;100.00
3464;BME280;3551;41.578;24.706;2024-02-23T01:34:27;91091.44;;;6.11;100.00
3464;BME280;3551;41.578;24.706;2024-02-23T01:36:54;91110.66;;;5.98;100.00
3464;BME280;3551;41.578;24.706;2024-02-23T01:39:22;91087.19;;;6.00;100.00
3464;BME280;3551;41.578;24.706;2024-02-23T01:41:50;91069.06;;;6.09;100.00
3464;BME280;3551;41.578;24.706;2024-02-23T01:44:21;91081.34;;;6.28;100.00
3464;BME280;3551;41.578;24.706;2024-02-23T01:46:50;91079.56;;;6.39;100.00
3464;BME280;3551;41.578;24.706;2024-02-23T01:49:18;91079.50;;;6.32;100.00
3464;BME280;3551;41.578;24.706;2024-02-23T01:51:45;91065.44;;;6.31;100.00
3464;BME280;3551;41.578;24.706;2024-02-23T01:54:12;91062.13;;;6.41;100.00
3464;BME280;3551;41.578;24.706;2024-02-23T01:56:39;91067.16;;;6.53;100.00
3464;BME280;3551;41.578;24.706;2024-02-23T01:59:07;91102.69;;;6.38;100.00
3464;BME280;3551;41.578;24.706;2024-02-23T02:01:37;91080.75;;;6.45;100.00
3464;BME280;3551;41.578;24.706;2024-02-23T02:04:06;91069.75;;;6.46;100.00
3464;BME280;3551;41.578;24.706;2024-02-23T02:06:33;91058.06;;;6.58;100.00
3464;BME280;3551;41.578;24.706;2024-02-23T02:09:00;91047.72;;;6.46;100.00
3464;BME280;3551;41.578;24.706;2024-02-23T02:11:30;91050.41;;;6.49;100.00
3464;BME280;3551;41.578;24.706;2024-02-23T02:13:56;91058.53;;;6.70;100.00
3464;BME280;3551;41.578;24.706;2024-02-23T02:16:24;91055.00;;;6.52;100.00
3464;BME280;3551;41.578;24.706;2024-02-23T02:18:52;91050.47;;;6.60;100.00
3464;BME280;3551;41.578;24.706;2024-02-23T02:21:20;91060.75;;;6.61;100.00
3464;BME280;3551;41.578;24.706;2024-02-23T02:23:50;91051.25;;;6.60;100.00
3464;BME280;3551;41.578;24.706;2024-02-23T02:26:17;91084.59;;;6.51;100.00
3464;BME280;3551;41.578;24.706;2024-02-23T02:28:44;91079.06;;;6.26;100.00
3464;BME280;3551;41.578;24.706;2024-02-23T02:31:12;91071.03;;;6.19;100.00
3464;BME280;3551;41.578;24.706;2024-02-23T02:33:40;91061.66;;;6.32;100.00
3464;BME280;3551;41.578;24.706;2024-02-23T02:36:07;91042.41;;;6.46;100.00
3464;BME280;3551;41.578;24.706;2024-02-23T02:38:35;91039.03;;;6.49;100.00
3464;BME280;3551;41.578;24.706;2024-02-23T02:41:02;91034.13;;;6.54;100.00
3464;BME280;3551;41.578;24.706;2024-02-23T02:43:33;91048.22;;;6.62;100.00
3464;BME280;3551;41.578;24.706;2024-02-23T02:46:00;91045.19;;;6.63;100.00
3464;BME280;3551;41.578;24.706;2024-02-23T02:48:29;91057.81;;;6.80;100.00
3464;BME280;3551;41.578;24.706;2024-02-23T02:50:56;91042.91;;;6.62;100.00
3464;BME280;3551;41.578;24.706;2024-02-23T02:53:25;91037.97;;;6.60;100.00
3464;BME280;3551;41.578;24.706;2024-02-23T02:55:53;91073.22;;;6.57;100.00
3464;BME280;3551;41.578;24.706;2024-02-23T02:58:22;91047.50;;;6.65;100.00
3464;BME280;3551;41.578;24.706;2024-02-23T03:00:51;91051.84;;;6.40;100.00
3464;BME280;3551;41.578;24.706;2024-02-23T03:03:20;91082.09;;;6.28;100.00
3464;BME280;3551;41.578;24.706;2024-02-23T03:05:48;91048.59;;;6.60;100.00
3464;BME280;3551;41.578;24.706;2024-02-23T03:08:17;91024.25;;;6.55;100.00
3464;BME280;3551;41.578;24.706;2024-02-23T03:10:44;91069.41;;;6.55;100.00
3464;BME280;3551;41.578;24.706;2024-02-23T03:13:12;91020.84;;;6.54;100.00
3464;BME280;3551;41.578;24.706;2024-02-23T03:15:41;91018.13;;;6.44;100.00
3464;BME280;3551;41.578;24.706;2024-02-23T03:18:09;91010.97;;;6.00;100.00
3464;BME280;3551;41.578;24.706;2024-02-23T03:20:36;91009.63;;;6.20;100.00
3464;BME280;3551;41.578;24.706;2024-02-23T03:23:05;91035.66;;;6.08;100.00
3464;BME280;3551;41.578;24.706;2024-02-23T03:25:32;91008.91;;;6.27;100.00
3464;BME280;3551;41.578;24.706;2024-02-23T03:28:00;91008.13;;;6.23;100.00
3464;BME280;3551;41.578;24.706;2024-02-23T03:30:33;91018.97;;;6.04;100.00
3464;BME280;3551;41.578;24.706;2024-02-23T03:33:00;91030.03;;;6.13;100.00
3464;BME280;3551;41.578;24.706;2024-02-23T03:35:28;91033.94;;;6.26;100.00
3464;BME280;3551;41.578;24.706;2024-02-23T03:37:54;91030.59;;;5.89;100.00
3464;BME280;3551;41.578;24.706;2024-02-23T03:40:22;91018.97;;;6.04;100.00
3464;BME280;3551;41.578;24.706;2024-02-23T03:42:49;91041.50;;;6.24;100.00
3464;BME280;3551;41.578;24.706;2024-02-23T03:45:17;91023.69;;;6.25;100.00
3464;BME280;3551;41.578;24.706;2024-02-23T03:47:45;91023.13;;;6.52;100.00
3464;BME280;3551;41.578;24.706;2024-02-23T03:50:12;91013.09;;;6.32;100.00
3464;BME280;3551;41.578;24.706;2024-02-23T03:52:39;91024.41;;;6.21;100.00
3464;BME280;3551;41.578;24.706;2024-02-23T03:55:07;91031.47;;;6.03;100.00
3464;BME280;3551;41.578;24.706;2024-02-23T03:57:34;90997.88;;;5.78;100.00
3464;BME280;3551;41.578;24.706;2024-02-23T04:00:01;91001.47;;;5.99;100.00
3464;BME280;3551;41.578;24.706;2024-02-23T04:02:28;91011.38;;;6.02;100.00
3464;BME280;3551;41.578;24.706;2024-02-23T04:04:56;91001.59;;;5.73;100.00
3464;BME280;3551;41.578;24.706;2024-02-23T04:07:23;91000.09;;;5.76;100.00
3464;BME280;3551;41.578;24.706;2024-02-23T04:09:50;90999.63;;;5.66;100.00
3464;BME280;3551;41.578;24.706;2024-02-23T04:12:20;91007.47;;;5.52;100.00
3464;BME280;3551;41.578;24.706;2024-02-23T04:14:47;91024.19;;;5.56;100.00
3464;BME280;3551;41.578;24.706;2024-02-23T04:17:14;90989.09;;;5.74;100.00
3464;BME280;3551;41.578;24.706;2024-02-23T04:19:45;90979.22;;;5.71;100.00
3464;BME280;3551;41.578;24.706;2024-02-23T04:22:17;90966.22;;;5.99;100.00
3464;BME280;3551;41.578;24.706;2024-02-23T04:24:44;90975.66;;;5.96;100.00
3464;BME280;3551;41.578;24.706;2024-02-23T04:27:12;90964.34;;;6.03;100.00
3464;BME280;3551;41.578;24.706;2024-02-23T04:29:38;90969.31;;;6.08;100.00
3464;BME280;3551;41.578;24.706;2024-02-23T04:32:06;90970.88;;;6.16;100.00
3464;BME280;3551;41.578;24.706;2024-02-23T04:34:34;90971.25;;;6.14;100.00
3464;BME280;3551;41.578;24.706;2024-02-23T04:37:02;90970.88;;;6.12;100.00
3464;BME280;3551;41.578;24.706;2024-02-23T04:39:30;90997.69;;;6.00;100.00
3464;BME280;3551;41.578;24.706;2024-02-23T04:41:59;90978.91;;;6.23;100.00
3464;BME280;3551;41.578;24.706;2024-02-23T04:44:26;90981.47;;;6.09;100.00
3464;BME280;3551;41.578;24.706;2024-02-23T04:46:54;90989.03;;;6.10;100.00
3464;BME280;3551;41.578;24.706;2024-02-23T04:49:21;90969.56;;;5.89;100.00
3464;BME280;3551;41.578;24.706;2024-02-23T04:51:48;90991.97;;;5.95;100.00
3464;BME280;3551;41.578;24.706;2024-02-23T04:54:14;90978.56;;;5.81;100.00
3464;BME280;3551;41.578;24.706;2024-02-23T04:56:43;90990.38;;;5.87;100.00
3464;BME280;3551;41.578;24.706;2024-02-23T04:59:10;90975.38;;;5.24;100.00
3464;BME280;3551;41.578;24.706;2024-02-23T05:01:37;90987.97;;;5.34;100.00
3464;BME280;3551;41.578;24.706;2024-02-23T05:04:04;90979.69;;;5.39;100.00
3464;BME280;3551;41.578;24.706;2024-02-23T05:06:31;91004.47;;;5.57;100.00
3464;BME280;3551;41.578;24.706;2024-02-23T05:08:58;91017.31;;;5.52;100.00
3464;BME280;3551;41.578;24.706;2024-02-23T05:11:26;91029.88;;;5.22;100.00
3464;BME280;3551;41.578;24.706;2024-02-23T05:13:54;90996.34;;;5.36;100.00
3464;BME280;3551;41.578;24.706;2024-02-23T05:16:21;90996.63;;;5.31;100.00
3464;BME280;3551;41.578;24.706;2024-02-23T05:18:49;90996.81;;;5.45;100.00
3464;BME280;3551;41.578;24.706;2024-02-23T05:21:16;91009.38;;;5.55;100.00
3464;BME280;3551;41.578;24.706;2024-02-23T05:23:43;90990.59;;;5.34;100.00
3464;BME280;3551;41.578;24.706;2024-02-23T05:26:14;91007.50;;;5.19;100.00
3464;BME280;3551;41.578;24.706;2024-02-23T05:28:42;91012.53;;;5.28;100.00
3464;BME280;3551;41.578;24.706;2024-02-23T05:31:10;90998.91;;;5.29;100.00
3464;BME280;3551;41.578;24.706;2024-02-23T05:33:37;91015.81;;;5.18;100.00
3464;BME280;3551;41.578;24.706;2024-02-23T05:36:04;91039.06;;;5.31;100.00
3464;BME280;3551;41.578;24.706;2024-02-23T05:38:33;91016.06;;;5.39;100.00
3464;BME280;3551;41.578;24.706;2024-02-23T05:41:00;91014.59;;;5.45;100.00
3464;BME280;3551;41.578;24.706;2024-02-23T05:43:27;91020.47;;;5.28;100.00
3464;BME280;3551;41.578;24.706;2024-02-23T05:45:54;91031.16;;;5.35;100.00
3464;BME280;3551;41.578;24.706;2024-02-23T05:48:25;91027.47;;;5.46;100.00
3464;BME280;3551;41.578;24.706;2024-02-23T05:50:53;91032.31;;;5.74;100.00
3464;BME280;3551;41.578;24.706;2024-02-23T05:53:20;91053.41;;;5.97;100.00
3464;BME280;3551;41.578;24.706;2024-02-23T05:55:47;91049.84;;;6.80;100.00
3464;BME280;3551;41.578;24.706;2024-02-23T05:58:14;91077.63;;;7.76;100.00
3464;BME280;3551;41.578;24.706;2024-02-23T06:00:42;91071.22;;;7.88;100.00
3464;BME280;3551;41.578;24.706;2024-02-23T06:03:09;91048.44;;;8.26;100.00
3464;BME280;3551;41.578;24.706;2024-02-23T06:05:38;91043.47;;;8.84;100.00
3464;BME280;3551;41.578;24.706;2024-02-23T06:08:09;91044.22;;;9.06;100.00
3464;BME280;3551;41.578;24.706;2024-02-23T06:10:57;91050.91;;;9.60;100.00
3464;BME280;3551;41.578;24.706;2024-02-23T06:13:26;91058.94;;;9.56;100.00
3464;BME280;3551;41.578;24.706;2024-02-23T06:15:54;91051.66;;;9.64;100.00
3464;BME280;3551;41.578;24.706;2024-02-23T06:18:21;91078.75;;;9.55;100.00
3464;BME280;3551;41.578;24.706;2024-02-23T06:20:50;91040.69;;;9.41;100.00
3464;BME280;3551;41.578;24.706;2024-02-23T06:23:18;91060.19;;;9.20;100.00
3464;BME280;3551;41.578;24.706;2024-02-23T06:25:55;91071.25;;;9.19;100.00
3464;BME280;3551;41.578;24.706;2024-02-23T06:28:22;91074.38;;;8.61;100.00
3464;BME280;3551;41.578;24.706;2024-02-23T06:30:49;91102.16;;;8.42;100.00
3464;BME280;3551;41.578;24.706;2024-02-23T06:33:16;91070.47;;;8.09;100.00
3464;BME280;3551;41.578;24.706;2024-02-23T06:35:44;91084.16;;;8.00;100.00
3464;BME280;3551;41.578;24.706;2024-02-23T06:38:12;91070.38;;;7.63;100.00
3464;BME280;3551;41.578;24.706;2024-02-23T06:40:39;91077.81;;;7.25;100.00
3464;BME280;3551;41.578;24.706;2024-02-23T06:43:08;91084.91;;;7.00;100.00
3464;BME280;3551;41.578;24.706;2024-02-23T06:45:34;91077.06;;;6.63;100.00
3464;BME280;3551;41.578;24.706;2024-02-23T06:48:07;91068.72;;;6.61;100.00
3464;BME280;3551;41.578;24.706;2024-02-23T06:50:35;91076.44;;;6.84;100.00
3464;BME280;3551;41.578;24.706;2024-02-23T06:53:03;91128.19;;;7.01;100.00
3464;BME280;3551;41.578;24.706;2024-02-23T06:55:50;91106.34;;;7.28;100.00
3464;BME280;3551;41.578;24.706;2024-02-23T06:58:18;91089.00;;;7.66;100.00
3464;BME280;3551;41.578;24.706;2024-02-23T07:00:45;91076.47;;;7.63;100.00
3464;BME280;3551;41.578;24.706;2024-02-23T07:03:12;91084.19;;;8.07;100.00
3464;BME280;3551;41.578;24.706;2024-02-23T07:05:40;91082.66;;;8.06;100.00
3464;BME280;3551;41.578;24.706;2024-02-23T07:08:08;91073.94;;;8.20;100.00
3464;BME280;3551;41.578;24.706;2024-02-23T07:10:35;91069.03;;;8.36;100.00
3464;BME280;3551;41.578;24.706;2024-02-23T07:13:04;91092.63;;;8.48;100.00
3464;BME280;3551;41.578;24.706;2024-02-23T07:15:32;91074.75;;;8.66;100.00
3464;BME280;3551;41.578;24.706;2024-02-23T07:18:01;91079.69;;;8.75;100.00
3464;BME280;3551;41.578;24.706;2024-02-23T07:20:28;91078.16;;;8.77;100.00
3464;BME280;3551;41.578;24.706;2024-02-23T07:22:55;91081.22;;;8.62;100.00
3464;BME280;3551;41.578;24.706;2024-02-23T07:25:22;91070.94;;;8.57;100.00
3464;BME280;3551;41.578;24.706;2024-02-23T07:27:49;91070.19;;;8.49;100.00
3464;BME280;3551;41.578;24.706;2024-02-23T07:30:17;91070.53;;;8.76;100.00
3464;BME280;3551;41.578;24.706;2024-02-23T07:32:44;91054.91;;;8.85;100.00
3464;BME280;3551;41.578;24.706;2024-02-23T07:35:11;91067.44;;;9.02;100.00
3464;BME280;3551;41.578;24.706;2024-02-23T07:37:39;91057.50;;;9.20;100.00
3464;BME280;3551;41.578;24.706;2024-02-23T07:40:07;91088.38;;;9.18;100.00
3464;BME280;3551;41.578;24.706;2024-02-23T07:42:34;91078.44;;;9.25;100.00
3464;BME280;3551;41.578;24.706;2024-02-23T07:45:02;91074.31;;;9.07;100.00
3464;BME280;3551;41.578;24.706;2024-02-23T07:47:31;91088.78;;;9.09;100.00
3464;BME280;3551;41.578;24.706;2024-02-23T07:49:58;91085.72;;;9.21;100.00
3464;BME280;3551;41.578;24.706;2024-02-23T07:52:26;91091.78;;;9.32;100.00
3464;BME280;3551;41.578;24.706;2024-02-23T07:55:14;91059.81;;;9.11;100.00
3464;BME280;3551;41.578;24.706;2024-02-23T07:57:44;91075.44;;;9.13;100.00
3464;BME280;3551;41.578;24.706;2024-02-23T08:16:23;91084.81;;;9.70;100.00
3464;BME280;3551;41.578;24.706;2024-02-23T08:18:50;91085.69;;;9.42;100.00
3464;BME280;3551;41.578;24.706;2024-02-23T08:21:19;91088.25;;;9.71;100.00
3464;BME280;3551;41.578;24.706;2024-02-23T08:23:50;91089.47;;;9.45;100.00
3464;BME280;3551;41.578;24.706;2024-02-23T08:26:28;91074.31;;;9.10;100.00
